Huvudsida
METAR-TAF:

METAR-TAF

Flygplatser :

Bornholms flygplats

Rønne, Danmark

latitud: 55-04N, longitud: 014-45E, höjd: 16 m

Aktuellt väderrapport

Denna rapport gjordes för 33 minuter sedan, klockan 12:20 UTC
Vind 12 kt från väst/sydväst
Temperatur 21°C
Fuktighet 60%
Tryck 1020 hPa
Sikt 10 km eller mer

METAR: EKRN 181220Z AUTO 25012KT 9999NDV NCD 21/13 Q1020

Tid: 14:53 (12:53 UTC)

Väderprognos

Denna rapport gjordes för 1 timme och 30 minuter sedan, klockan 11:23 UTC
Prognos gäller från 18 kl. 12 UTC till 18 kl. 21 UTC
Vind 10 kt från väst
Sikt 10 km eller mer
Få moln på en höjd av 2500 ft

TAF: EKRN 181123Z 1812/1821 26010KT 9999 FEW025

Aktuella väderrapporter och prognoser från 4000 flygplatser (METAR- och TAF-rapporter).

De tillgängliga stationerna syns som gula och röda prickar på kartan.

För musen över prickarna för att se namnen på stationerna.

Klicka sedan för att få väderrapporter och prognoser.

För att ändra kartan: Klicka på de gröna knapparna med ett svart kors på för att zooma in; den gröna knappen med ett streck på för att zooma ut; eller på de gröna pilarna för angränsande kartor.


METAR-TAF: